createdAt,value
2023-08-11T00:01:39.037Z,0.50
2023-08-11T00:06:44.399Z,0.50
2023-08-11T00:11:51.324Z,0.50
2023-08-11T00:16:55.148Z,0.50
2023-08-11T00:22:00.420Z,0.50
2023-08-11T00:27:04.396Z,0.50
2023-08-11T00:32:08.470Z,0.50
2023-08-11T00:37:14.141Z,0.50
2023-08-11T00:42:17.710Z,0.50
2023-08-11T00:47:21.646Z,0.50
2023-08-11T00:52:26.659Z,0.50
2023-08-11T00:57:31.466Z,0.50
2023-08-11T01:02:35.144Z,0.50
2023-08-11T01:07:45.838Z,0.50
2023-08-11T01:12:56.103Z,0.50
2023-08-11T01:17:59.971Z,0.50
2023-08-11T01:23:07.547Z,0.50
2023-08-11T01:28:12.540Z,0.50
2023-08-11T01:33:16.496Z,0.50
2023-08-11T01:38:20.440Z,0.50
2023-08-11T01:43:26.250Z,0.50
2023-08-11T01:48:30.380Z,0.50
2023-08-11T01:53:34.436Z,0.50
2023-08-11T01:58:40.418Z,0.50
2023-08-11T02:03:45.303Z,0.50
2023-08-11T02:08:49.181Z,0.50
2023-08-11T02:13:54.372Z,0.50
2023-08-11T02:18:58.521Z,0.50
2023-08-11T02:24:02.201Z,0.50
2023-08-11T02:29:07.259Z,0.60
2023-08-11T02:34:11.142Z,0.50
2023-08-11T02:39:14.905Z,0.50
2023-08-11T02:44:19.837Z,0.50
2023-08-11T02:49:23.868Z,0.50
2023-08-11T02:54:27.594Z,0.50
2023-08-11T02:59:32.703Z,0.50
2023-08-11T03:04:37.565Z,0.40
2023-08-11T03:09:41.607Z,0.40
2023-08-11T03:14:46.822Z,0.50
2023-08-11T03:19:50.605Z,0.50
2023-08-11T03:24:54.434Z,0.50
2023-08-11T03:29:59.690Z,0.50
2023-08-11T03:35:05.265Z,0.50
2023-08-11T03:40:14.096Z,0.50
2023-08-11T03:45:23.988Z,0.50
2023-08-11T03:50:28.455Z,0.50
2023-08-11T03:55:32.374Z,0.60
2023-08-11T04:00:38.945Z,0.50
2023-08-11T04:05:49.079Z,0.50
2023-08-11T04:10:52.935Z,0.50
2023-08-11T04:15:57.927Z,0.50
2023-08-11T04:21:01.718Z,0.97
2023-08-11T04:26:06.730Z,0.50
2023-08-11T04:31:12.391Z,0.50
2023-08-11T04:36:18.201Z,0.50
2023-08-11T04:41:22.663Z,0.50
2023-08-11T04:46:27.853Z,0.50
2023-08-11T04:51:33.250Z,0.50
2023-08-11T04:56:36.918Z,0.50
2023-08-11T05:01:42.814Z,0.50
2023-08-11T05:06:46.450Z,0.50
2023-08-11T05:11:50.084Z,0.50
2023-08-11T05:16:55.222Z,0.50
2023-08-11T05:21:59.006Z,0.50
2023-08-11T05:27:02.632Z,0.50
2023-08-11T05:32:08.144Z,0.50
2023-08-11T05:37:12.218Z,0.70
2023-08-11T05:42:16.607Z,0.50
2023-08-11T05:47:22.494Z,0.50
2023-08-11T05:52:26.149Z,0.53
2023-08-11T05:57:30.047Z,2.00
2023-08-11T06:02:35.022Z,24.87
2023-08-11T06:07:55.772Z,0.70
2023-08-11T06:13:01.587Z,0.50
2023-08-11T06:18:10.369Z,0.50
2023-08-11T06:23:14.401Z,0.50
2023-08-11T06:28:20.880Z,0.50
2023-08-11T06:33:27.410Z,0.70
2023-08-11T06:38:31.939Z,0.57
2023-08-11T06:43:38.013Z,0.50
2023-08-11T06:48:44.660Z,0.60
2023-08-11T06:53:48.821Z,0.50
2023-08-11T06:58:53.942Z,0.57
2023-08-11T07:04:01.938Z,0.80
2023-08-11T07:09:06.873Z,0.73
2023-08-11T07:14:11.327Z,382.97
2023-08-11T07:19:20.821Z,2266.67
2023-08-11T07:24:24.658Z,2266.67
2023-08-11T07:29:36.289Z,1261.47
2023-08-11T07:34:43.166Z,0.50
2023-08-11T07:40:02.596Z,0.50
2023-08-11T07:45:07.723Z,0.50
2023-08-11T07:50:12.850Z,0.70
2023-08-11T07:55:16.693Z,0.50
2023-08-11T08:00:30.811Z,0.50
2023-08-11T08:05:40.402Z,0.53
2023-08-11T08:10:44.631Z,0.50
2023-08-11T08:27:40.664Z,0.50
2023-08-11T08:32:44.867Z,0.50
2023-08-11T08:37:48.717Z,0.50
2023-08-11T08:42:54.999Z,0.60
2023-08-11T08:47:59.520Z,0.50
2023-08-11T08:53:05.382Z,0.50
2023-08-11T08:58:18.029Z,0.50
2023-08-11T09:03:22.029Z,0.50
2023-08-11T09:08:26.032Z,0.50
2023-08-11T09:13:33.425Z,0.50
2023-08-11T09:18:38.701Z,0.50
2023-08-11T09:23:45.431Z,0.50
2023-08-11T09:28:52.067Z,0.50
2023-08-11T09:33:55.832Z,0.50
2023-08-11T09:39:09.019Z,1.03
2023-08-11T09:44:17.944Z,0.50
2023-08-11T09:49:21.755Z,0.50
2023-08-11T09:54:26.481Z,0.50
2023-08-11T09:59:31.637Z,1.03
2023-08-11T10:04:40.191Z,0.50
2023-08-11T10:09:46.336Z,0.60
2023-08-11T10:14:53.403Z,0.50
2023-08-11T10:20:08.669Z,0.50
2023-08-11T10:25:13.244Z,0.50
2023-08-11T10:30:19.570Z,0.63
2023-08-11T10:35:28.881Z,0.50
2023-08-11T10:40:38.736Z,1.93
2023-08-11T10:45:44.925Z,0.50
2023-08-11T10:50:49.114Z,0.50
2023-08-11T10:56:01.352Z,0.50
2023-08-11T11:01:07.144Z,0.50
2023-08-11T11:06:11.282Z,0.60
2023-08-11T11:11:15.302Z,0.50
2023-08-11T11:16:20.648Z,429.83
2023-08-11T11:21:28.245Z,0.50
2023-08-11T11:26:34.464Z,0.50
2023-08-11T11:31:41.299Z,0.50
2023-08-11T11:36:45.422Z,0.50
2023-08-11T11:41:49.631Z,0.50
2023-08-11T11:46:55.090Z,0.50
2023-08-11T11:51:59.612Z,0.50
2023-08-11T11:57:08.277Z,0.50
2023-08-11T12:02:15.422Z,0.50
2023-08-11T12:07:35.149Z,0.60
2023-08-11T12:12:39.481Z,0.87
2023-08-11T12:17:50.298Z,0.50
2023-08-11T12:22:54.093Z,0.60
2023-08-11T12:27:58.144Z,0.50
2023-08-11T12:33:03.970Z,0.50
2023-08-11T12:38:10.874Z,0.50
2023-08-11T12:43:15.581Z,0.50
2023-08-11T12:48:20.920Z,0.50
2023-08-11T12:53:25.520Z,0.50
2023-08-11T12:58:30.080Z,0.47
2023-08-11T13:03:35.645Z,0.50
2023-08-11T13:08:39.980Z,0.50
2023-08-11T13:13:52.414Z,0.50
2023-08-11T13:18:57.555Z,0.47
2023-08-11T13:24:01.830Z,0.50
2023-08-11T13:29:06.401Z,0.40
2023-08-11T13:34:11.641Z,0.87
2023-08-11T13:39:15.769Z,0.40
2023-08-11T13:44:21.633Z,0.70
2023-08-11T13:49:26.941Z,0.50
2023-08-11T13:54:31.128Z,0.50
2023-08-11T13:59:34.997Z,0.50
2023-08-11T14:04:40.717Z,0.40
2023-08-11T14:09:44.694Z,0.50
2023-08-11T14:14:48.561Z,0.50
2023-08-11T14:19:53.671Z,0.70
2023-08-11T14:25:02.380Z,0.50
2023-08-11T14:30:07.366Z,0.50
2023-08-11T14:35:12.654Z,0.50
2023-08-11T14:40:17.113Z,0.40
2023-08-11T14:45:21.049Z,0.40
2023-08-11T14:50:26.171Z,0.50
2023-08-11T14:55:30.774Z,0.50
2023-08-11T15:00:34.789Z,0.40
2023-08-11T15:05:40.198Z,0.40
2023-08-11T15:10:44.799Z,0.50
2023-08-11T15:15:49.123Z,0.50
2023-08-11T15:20:55.749Z,0.40
2023-08-11T15:25:59.737Z,0.50
2023-08-11T15:31:04.937Z,0.60
2023-08-11T15:36:12.961Z,0.50
2023-08-11T15:41:16.744Z,0.50
2023-08-11T15:46:20.551Z,0.50
2023-08-11T15:51:26.274Z,0.50
2023-08-11T15:56:30.448Z,0.50
2023-08-11T16:01:34.373Z,0.50
2023-08-11T16:06:39.728Z,0.50
2023-08-11T16:11:45.721Z,0.50
2023-08-11T16:16:49.839Z,0.50
2023-08-11T16:21:55.130Z,0.50
2023-08-11T16:26:58.921Z,0.47
2023-08-11T16:32:03.016Z,0.50
2023-08-11T16:37:09.040Z,0.50
2023-08-11T16:42:13.161Z,0.50
2023-08-11T16:47:17.092Z,0.50
2023-08-11T16:52:22.893Z,0.50
2023-08-11T16:57:26.794Z,0.50
2023-08-11T17:02:30.652Z,0.50
2023-08-11T17:07:36.156Z,0.50
2023-08-11T17:12:40.022Z,0.50
2023-08-11T17:17:43.792Z,0.50
2023-08-11T17:22:50.173Z,0.50
2023-08-11T17:27:54.038Z,0.50
2023-08-11T17:32:58.730Z,0.50
2023-08-11T17:38:05.283Z,0.50
2023-08-11T17:43:10.461Z,0.50
2023-08-11T17:48:15.154Z,0.50
2023-08-11T17:53:20.827Z,0.50
2023-08-11T17:58:24.827Z,0.50
2023-08-11T18:03:28.812Z,0.50
2023-08-11T18:08:34.289Z,0.50
2023-08-11T18:13:40.606Z,0.50
2023-08-11T18:18:45.814Z,0.50
2023-08-11T18:23:51.233Z,0.50
2023-08-11T18:28:55.123Z,0.50
2023-08-11T18:34:01.170Z,0.50
2023-08-11T18:39:07.327Z,0.50
2023-08-11T18:44:11.492Z,0.50
2023-08-11T18:49:15.464Z,0.50
2023-08-11T18:54:20.743Z,0.50
2023-08-11T18:59:24.677Z,0.50
2023-08-11T19:04:28.530Z,0.50
2023-08-11T19:09:33.813Z,0.50
2023-08-11T19:14:37.673Z,0.50
2023-08-11T19:19:41.849Z,0.50
2023-08-11T19:24:47.204Z,0.50
2023-08-11T19:29:51.069Z,0.50
2023-08-11T19:34:56.623Z,1.80
2023-08-11T19:40:01.963Z,0.50
2023-08-11T19:45:06.947Z,0.50
2023-08-11T19:50:11.062Z,0.50
2023-08-11T19:55:16.519Z,0.50
2023-08-11T20:00:21.086Z,0.50
2023-08-11T20:05:25.258Z,0.50
2023-08-11T20:10:30.504Z,0.50
2023-08-11T20:15:34.612Z,0.50
2023-08-11T20:20:38.705Z,0.50
2023-08-11T20:25:43.928Z,0.50
2023-08-11T20:30:47.825Z,0.50
2023-08-11T20:35:51.531Z,0.50
2023-08-11T20:41:00.154Z,0.50
2023-08-11T20:46:04.609Z,0.50
2023-08-11T20:51:13.012Z,0.50
2023-08-11T21:01:25.008Z,0.50
2023-08-11T21:06:31.544Z,0.50
2023-08-11T21:11:36.864Z,0.50
2023-08-11T21:16:41.538Z,0.50
2023-08-11T21:21:46.288Z,0.50
2023-08-11T21:26:51.458Z,0.50
2023-08-11T21:31:56.401Z,0.50
2023-08-11T21:37:01.926Z,0.50
2023-08-11T21:42:09.448Z,0.50
2023-08-11T21:47:13.715Z,0.50
2023-08-11T21:52:18.273Z,0.50
2023-08-11T21:57:23.632Z,0.50
2023-08-11T22:02:27.590Z,0.50
2023-08-11T22:07:31.603Z,0.50
2023-08-11T22:12:36.888Z,0.50
2023-08-11T22:17:41.182Z,0.50
2023-08-11T22:22:45.030Z,0.50
2023-08-11T22:27:50.229Z,0.50
2023-08-11T22:32:54.095Z,0.50
2023-08-11T22:37:57.975Z,0.50
2023-08-11T22:43:03.301Z,0.50
2023-08-11T22:48:08.104Z,0.50
2023-08-11T22:53:11.865Z,0.50
2023-08-11T22:58:17.100Z,0.50
2023-08-11T23:03:20.905Z,0.50
2023-08-11T23:08:24.721Z,0.50
2023-08-11T23:13:29.952Z,0.50
2023-08-11T23:18:33.671Z,0.50
2023-08-11T23:23:37.239Z,0.50
2023-08-11T23:28:42.617Z,0.50
2023-08-11T23:33:46.436Z,1.00
2023-08-11T23:38:50.597Z,25.40
2023-08-11T23:43:55.898Z,0.50
2023-08-11T23:48:59.634Z,0.50
2023-08-11T23:54:03.303Z,0.50
2023-08-11T23:59:08.497Z,0.50
